METAR Data
IDs: Format: Raw Decoded Include TAF

Data at: 2038 UTC 25 Oct 2021

LZZI 252030Z VRB01KT CAVOK 01/M01 Q1025